Grizzly Air Cargo 5112


PAJN
Juneau International Airport
Juneau, Alaska, US
PANC
Ted Stevens Anchorage International Airport
Anchorage, Alaska, US

Activity Log

Date Flight Route Aircraft Duration
09/08/2020 GRZ5112 JOH B722 1h 19m
09/27/2019 GRZ502 CHLKT1 ALATY JOH WITTI4 B722 1h 30m
09/24/2019 GRZ532 CHLKT1 ALATY JOH WITTI4 B738 1h 38m
08/28/2019 GRZ532 CHLKT1 ALATY JOH WITTI4 B738 1h 24m
08/04/2019 GRZ532 CHLKT1 ALATY JOH WITTI4 B738 1h 37m
07/01/2019 GRZ502 CHLKT1 ALATY JOH WITTI4 B722 1h 39m
04/15/2019 GRZ502 ASORT2 ASORT J541 YAK J501 JOH B722 1h 33m
03/07/2019 GRZ502 CHLKT1 ALATY JOH WITTI4 B722 1h 37m

Route Details

Aircraft Information
Primary: Boeing 727-200F
Backup: Boeing 737-800BCF
Route Data
Distance: 496nm
Sched. Duration: 2h 00m
Avg. Duration: 1h 32m (-67m)
Times Flown: 8
Recm'd Route: CHLKT1 ALATY JOH WITTI4
Planned Altitude: 30,000ft
Origin Wx: PAJN 290353Z 06006KT 10SM FEW008 SCT039 OVC050 05/04 A3003 RMK AO2 RAE30 SLP167 P0000 T00500039
Dest. Wx: PANC 290353Z 05004KT 10SM BKN007 M04/M06 A3003 RMK AO2 SLP174 T10391056
Notes:

Financial History
Total Freight: 297,269lbs
Average Load: 37,159lbs/flt
Fuel Used: 88,453lbs
Avg. Fuel Used: 11,057lbs/flt
Fuel Expense: $94,645
Avg. Fuel Expense: $11,831
Avg. Fuel Cost: $1.07/lbs
Total Gross Income: $428,417
Pilot Pay: $1,622
Total Expenses: $46,685
Total Revenue: $284,342
Average Revenue: $53,552.15